PWSweather.com
Personal Weather Stations
Station Observations
SMETHPA
Wilcat Hollow, Upper Marvin Creek, Smethport, PA 16749

Wilcat Hollow, Upper Marvin CreekSmethport, PA 16749

Lat: 41.7178, Lon: -78.5583

Elevation: 1644

Station Type: Davis Vantage Pro 2 Plus

http://www.mckeanweather.com

Latest ConditionsUpdated 3:50:01 AM EST Thursday, Dec 12, 2019
Currently Today's Max Today's Min Today's Average
Temperature 18.3°F-7.6°C 20.6°F-6.3°C 18.3°F-7.6°C 19.9°F-6.7°C
Dew Point 14.3°F-9.8°C 16.0°F-8.9°C 14.3°F-9.8°C 15.6°F-9.1°C
Winds 1.0 mph WSW1.6 kmh WSW 2.0 mph -3.2 kmh - - 1.0 mph 1.6 kmh
Wind Gusts 3.0 mph4.8 kmh 6.0 mph9.7 kmh - -
Humidity 84% 84% 81% 83%
Pressure 30.68 in1038.9 mb 30.69 in1039.3 mb 30.62 in1036.9 mb -
Hour Temp Dew Point Humidity Winds Wind Gusts Pressure Precip Precip Rate Daily Precip Total
03:50 AM 18.3°F-7.6°C 14.3°F-9.8°C 84% 1.0 mph WSW1.6 kmh WSW 3.0 mph4.8 kmh 30.68 in1038.9 mb 0.00 in0.0 mm 0.00 in0.0 mm 0.00 in0.0 mm
03:40 AM 18.5°F-7.5°C 14.5°F-9.7°C 84% 2.0 mph WSW3.2 kmh WSW 4.0 mph6.4 kmh 30.69 in1039.3 mb 0.00 in0.0 mm 0.00 in0.0 mm 0.00 in0.0 mm
03:30 AM 18.8°F-7.3°C 14.8°F-9.6°C 84% 1.0 mph WSW1.6 kmh WSW 6.0 mph9.7 kmh 30.69 in1039.3 mb 0.00 in0.0 mm 0.00 in0.0 mm 0.00 in0.0 mm
03:20 AM 19.0°F-7.2°C 15.0°F-9.4°C 84% 1.0 mph WSW1.6 kmh WSW 5.0 mph8.0 kmh 30.68 in1038.9 mb 0.00 in0.0 mm 0.00 in0.0 mm 0.00 in0.0 mm
03:10 AM 19.2°F-7.1°C 15.2°F-9.3°C 84% 1.0 mph WSW1.6 kmh WSW 4.0 mph6.4 kmh 30.68 in1038.9 mb 0.00 in0.0 mm 0.00 in0.0 mm 0.00 in0.0 mm
03:00 AM 19.3°F-7.1°C 15.3°F-9.3°C 84% 1.0 mph WSW1.6 kmh WSW 4.0 mph6.4 kmh 30.68 in1038.9 mb 0.00 in0.0 mm 0.00 in0.0 mm 0.00 in0.0 mm
02:50 AM 19.5°F-6.9°C 15.5°F-9.2°C 84% 1.0 mph WSW1.6 kmh WSW 3.0 mph4.8 kmh 30.67 in1038.6 mb 0.00 in0.0 mm 0.00 in0.0 mm 0.00 in0.0 mm
02:40 AM 19.6°F-6.9°C 15.6°F-9.1°C 84% 1.0 mph WSW1.6 kmh WSW 4.0 mph6.4 kmh 30.67 in1038.6 mb 0.00 in0.0 mm 0.00 in0.0 mm 0.00 in0.0 mm
02:30 AM 19.7°F-6.8°C 15.6°F-9.1°C 84% 2.0 mph WSW3.2 kmh WSW 4.0 mph6.4 kmh 30.67 in1038.6 mb 0.00 in0.0 mm 0.00 in0.0 mm 0.00 in0.0 mm
02:20 AM 19.8°F-6.8°C 15.7°F-9.1°C 84% 1.0 mph WSW1.6 kmh WSW 5.0 mph8.0 kmh 30.67 in1038.6 mb 0.00 in0.0 mm 0.00 in0.0 mm 0.00 in0.0 mm
02:10 AM 20.0°F-6.7°C 15.7°F-9.1°C 83% 1.0 mph WSW1.6 kmh WSW 4.0 mph6.4 kmh 30.67 in1038.6 mb 0.00 in0.0 mm 0.00 in0.0 mm 0.00 in0.0 mm
02:00 AM 20.0°F-6.7°C 15.7°F-9.1°C 83% 1.0 mph WSW1.6 kmh WSW 3.0 mph4.8 kmh 30.66 in1038.3 mb 0.00 in0.0 mm 0.00 in0.0 mm 0.00 in0.0 mm
01:50 AM 20.1°F-6.6°C 15.8°F-9.0°C 83% 1.0 mph WSW1.6 kmh WSW 3.0 mph4.8 kmh 30.66 in1038.3 mb 0.00 in0.0 mm 0.00 in0.0 mm 0.00 in0.0 mm
01:40 AM 20.2°F-6.6°C 15.9°F-8.9°C 83% 1.0 mph WSW1.6 kmh WSW 3.0 mph4.8 kmh 30.66 in1038.3 mb 0.00 in0.0 mm 0.00 in0.0 mm 0.00 in0.0 mm
01:30 AM 20.2°F-6.6°C 15.9°F-8.9°C 83% 1.0 mph WSW1.6 kmh WSW 3.0 mph4.8 kmh 30.65 in1037.9 mb 0.00 in0.0 mm 0.00 in0.0 mm 0.00 in0.0 mm
01:20 AM 20.2°F-6.6°C 15.6°F-9.1°C 82% 1.0 mph WSW1.6 kmh WSW 5.0 mph8.0 kmh 30.64 in1037.6 mb 0.00 in0.0 mm 0.00 in0.0 mm 0.00 in0.0 mm
01:10 AM 20.3°F-6.5°C 15.7°F-9.1°C 82% 1.0 mph WSW1.6 kmh WSW 6.0 mph9.7 kmh 30.63 in1037.3 mb 0.00 in0.0 mm 0.00 in0.0 mm 0.00 in0.0 mm
01:00 AM 20.4°F-6.4°C 15.8°F-9.0°C 82% 1.0 mph WSW1.6 kmh WSW 5.0 mph8.0 kmh 30.63 in1037.3 mb 0.00 in0.0 mm 0.00 in0.0 mm 0.00 in0.0 mm
12:50 AM 20.6°F-6.3°C 16.0°F-8.9°C 82% 1.0 mph WSW1.6 kmh WSW 5.0 mph8.0 kmh 30.63 in1037.3 mb 0.00 in0.0 mm 0.00 in0.0 mm 0.00 in0.0 mm
12:40 AM 20.6°F-6.3°C 16.0°F-8.9°C 82% 1.0 mph WSW1.6 kmh WSW 4.0 mph6.4 kmh 30.63 in1037.3 mb 0.00 in0.0 mm 0.00 in0.0 mm 0.00 in0.0 mm
12:30 AM 20.6°F-6.3°C 16.0°F-8.9°C 82% 1.0 mph WSW1.6 kmh WSW 4.0 mph6.4 kmh 30.63 in1037.3 mb 0.00 in0.0 mm 0.00 in0.0 mm 0.00 in0.0 mm
12:20 AM 20.6°F-6.3°C 16.0°F-8.9°C 82% 1.0 mph WSW1.6 kmh WSW 4.0 mph6.4 kmh 30.63 in1037.3 mb 0.00 in0.0 mm 0.00 in0.0 mm 0.00 in0.0 mm
12:10 AM 20.6°F-6.3°C 16.0°F-8.9°C 82% Calm Calm -- 30.62 in1036.9 mb 0.00 in0.0 mm 0.00 in0.0 mm 0.00 in0.0 mm
12:00 AM 20.6°F-6.3°C 15.7°F-9.1°C 81% 1.0 mph WSW1.6 kmh WSW 4.0 mph6.4 kmh 30.62 in1036.9 mb 0.00 in0.0 mm 0.00 in0.0 mm 0.00 in0.0 mm